Time,TemperatureF,DewpointF,PressureIn,WindDirection,WindDirectionDegrees,WindSpeedMPH,WindSpeedGustMPH,Humidity,HourlyPrecipIn,Conditions,Clouds,dailyrainin,SoftwareType,DateUTC
2013-03-07 00:32:00,52.0,-99.9,-100.00,West,270,1.0,2.0,-999,-99.99,,,-99.99,,2013-03-07 07:32:00,
2013-03-07 00:43:00,52.0,-99.9,-100.00,West,270,1.0,2.0,-999,-99.99,,,-99.99,,2013-03-07 07:43:00,
2013-03-07 00:45:00,45.0,-99.9,-100.00,WSW,258,3.0,3.0,-999,-99.99,,,-99.99,,2013-03-07 07:45:00,
2013-03-07 01:23:00,47.0,-99.9,-100.00,West,270,4.0,5.0,-999,-99.99,,,-99.99,,2013-03-07 08:23:00,
2013-03-07 01:34:00,45.0,-99.9,-100.00,WSW,258,3.0,3.0,-999,-99.99,,,-99.99,,2013-03-07 08:34:00,
2013-03-07 02:33:00,39.0,-99.9,-100.00,SW,228,1.0,3.0,-999,-99.99,,,-99.99,,2013-03-07 09:33:00,
2013-03-07 02:43:00,39.0,-99.9,-100.00,SW,228,1.0,3.0,-999,-99.99,,,-99.99,,2013-03-07 09:43:00,
2013-03-07 02:54:00,39.0,-99.9,-100.00,SW,228,1.0,3.0,-999,-99.99,,,-99.99,,2013-03-07 09:54:00,
2013-03-07 03:04:00,42.0,-99.9,-100.00,WSW,258,3.0,3.0,-999,-99.99,,,-99.99,,2013-03-07 10:04:00,
2013-03-07 03:14:00,42.0,-99.9,-100.00,WSW,258,3.0,3.0,-999,-99.99,,,-99.99,,2013-03-07 10:14:00,
2013-03-07 03:24:00,41.0,-99.9,-100.00,NW,326,1.0,1.0,-999,-99.99,,,-99.99,,2013-03-07 10:24:00,
2013-03-07 03:34:00,41.0,-99.9,-100.00,NW,326,1.0,1.0,-999,-99.99,,,-99.99,,2013-03-07 10:34:00,
2013-03-07 03:50:00,38.0,-99.9,-100.00,WSW,252,1.0,5.0,-999,-99.99,,,-99.99,,2013-03-07 10:50:00,
2013-03-07 04:34:00,38.0,-99.9,-100.00,WSW,252,1.0,5.0,-999,-99.99,,,-99.99,,2013-03-07 11:34:00,
2013-03-07 04:44:00,38.0,-99.9,-100.00,WSW,252,1.0,5.0,-999,-99.99,,,-99.99,,2013-03-07 11:44:00,
2013-03-07 05:04:00,36.0,-99.9,-100.00,NNW,340,0.0,0.0,-999,-99.99,,,-99.99,,2013-03-07 12:04:00,
2013-03-07 05:13:00,36.0,-99.9,-100.00,NNW,340,0.0,0.0,-999,-99.99,,,-99.99,,2013-03-07 12:13:00,
2013-03-07 05:53:00,37.0,-99.9,-100.00,ENE,73,0.0,1.0,-999,-99.99,,,-99.99,,2013-03-07 12:53:00,
2013-03-07 06:03:00,36.0,-99.9,-100.00,NNE,31,0.0,1.0,-999,-99.99,,,-99.99,,2013-03-07 13:03:00,
2013-03-07 06:13:00,36.0,-99.9,-100.00,NNE,31,0.0,1.0,-999,-99.99,,,-99.99,,2013-03-07 13:13:00,
2013-03-07 07:54:00,37.0,-99.9,-100.00,ENE,67,0.0,0.0,-999,-99.99,,,-99.99,,2013-03-07 14:54:00,
2013-03-07 08:03:00,41.0,-99.9,-100.00,SW,236,1.0,1.0,-999,-99.99,,,-99.99,,2013-03-07 15:03:00,
2013-03-07 08:23:00,44.0,-99.9,-100.00,ESE,103,0.0,0.0,-999,-99.99,,,-99.99,,2013-03-07 15:23:00,
2013-03-07 08:33:00,46.0,-99.9,-100.00,SW,236,1.0,2.0,-999,-99.99,,,-99.99,,2013-03-07 15:33:00,
2013-03-07 08:43:00,46.0,-99.9,-100.00,SW,236,1.0,2.0,-999,-99.99,,,-99.99,,2013-03-07 15:43:00,
2013-03-07 08:53:00,50.0,-99.9,-100.00,WSW,247,0.0,0.0,-999,-99.99,,,-99.99,,2013-03-07 15:53:00,
2013-03-07 09:03:00,50.0,-99.9,-100.00,WSW,247,0.0,0.0,-999,-99.99,,,-99.99,,2013-03-07 16:03:00,
2013-03-07 11:53:00,70.0,-99.9,-100.00,NNW,345,1.0,3.0,-999,-99.99,,,-99.99,,2013-03-07 18:53:00,
2013-03-07 12:04:00,70.0,-99.9,-100.00,NNW,345,1.0,3.0,-999,-99.99,,,-99.99,,2013-03-07 19:04:00,
2013-03-07 14:53:00,72.0,-99.9,-100.00,NE,51,5.0,6.0,-999,-99.99,,,-99.99,,2013-03-07 21:53:00,
2013-03-07 15:02:00,72.0,-99.9,-100.00,NE,51,5.0,6.0,-999,-99.99,,,-99.99,,2013-03-07 22:02:00,
2013-03-07 17:05:00,69.0,-99.9,-100.00,NE,42,6.0,9.0,-999,-99.99,,,-99.99,,2013-03-08 00:05:00,
2013-03-07 17:10:00,69.0,-99.9,-100.00,NE,45,6.0,7.0,-999,-99.99,,,-99.99,,2013-03-08 00:10:00,
2013-03-07 17:13:00,69.0,-99.9,-100.00,NE,42,6.0,9.0,-999,-99.99,,,-99.99,,2013-03-08 00:13:00,
2013-03-07 17:23:00,69.0,-99.9,-100.00,NE,42,6.0,9.0,-999,-99.99,,,-99.99,,2013-03-08 00:23:00,
2013-03-07 17:54:00,69.0,-99.9,-100.00,NE,45,6.0,7.0,-999,-99.99,,,-99.99,,2013-03-08 00:54:00,
2013-03-07 18:02:00,69.0,-99.9,-100.00,NE,45,6.0,7.0,-999,-99.99,,,-99.99,,2013-03-08 01:02:00,
2013-03-07 20:10:00,63.0,-99.9,-100.00,NE,36,5.0,6.0,-999,-99.99,,,-99.99,,2013-03-08 03:10:00,
2013-03-07 20:53:00,63.0,-99.9,-100.00,NE,36,5.0,6.0,-999,-99.99,,,-99.99,,2013-03-08 03:53:00,
2013-03-07 21:02:00,63.0,-99.9,-100.00,NE,36,5.0,6.0,-999,-99.99,,,-99.99,,2013-03-08 04:02:00,
2013-03-07 21:30:00,60.0,-99.9,-100.00,ENE,57,2.0,5.0,-999,-99.99,,,-99.99,,2013-03-08 04:30:00,
2013-03-07 22:02:00,60.0,-99.9,-100.00,ENE,57,2.0,5.0,-999,-99.99,,,-99.99,,2013-03-08 05:02:00,
2013-03-07 22:12:00,60.0,-99.9,-100.00,ENE,57,2.0,5.0,-999,-99.99,,,-99.99,,2013-03-08 05:12:00,
2013-03-07 22:22:00,60.0,-99.9,-100.00,ENE,57,2.0,5.0,-999,-99.99,,,-99.99,,2013-03-08 05:22:00,
2013-03-07 23:32:00,60.0,-99.9,-100.00,NE,46,3.0,5.0,-999,-99.99,,,-99.99,,2013-03-08 06:32:00,
2013-03-07 23:42:00,60.0,-99.9,-100.00,NE,46,3.0,5.0,-999,-99.99,,,-99.99,,2013-03-08 06:42:00,
2013-03-07 23:52:00,60.0,-99.9,-100.00,NE,46,3.0,5.0,-999,-99.99,,,-99.99,,2013-03-08 06:52:00,